sensor_id;sensor_type;location;lat;lon;timestamp;P1;durP1;ratioP1;P2;durP2;ratioP2
9809;SDS011;4944;52.514;13.192;2023-04-24T00:01:23;3.43;;;3.13;;
9809;SDS011;4944;52.514;13.192;2023-04-24T00:03:50;4.00;;;3.17;;
9809;SDS011;4944;52.514;13.192;2023-04-24T00:06:17;3.10;;;2.90;;
9809;SDS011;4944;52.514;13.192;2023-04-24T00:08:44;3.13;;;2.93;;
9809;SDS011;4944;52.514;13.192;2023-04-24T00:11:12;3.40;;;3.20;;
9809;SDS011;4944;52.514;13.192;2023-04-24T00:13:39;3.57;;;3.37;;
9809;SDS011;4944;52.514;13.192;2023-04-24T00:16:06;3.43;;;3.00;;
9809;SDS011;4944;52.514;13.192;2023-04-24T00:18:33;3.40;;;3.20;;
9809;SDS011;4944;52.514;13.192;2023-04-24T00:21:00;3.73;;;3.53;;
9809;SDS011;4944;52.514;13.192;2023-04-24T00:23:27;3.37;;;3.17;;
9809;SDS011;4944;52.514;13.192;2023-04-24T00:25:54;3.47;;;3.27;;
9809;SDS011;4944;52.514;13.192;2023-04-24T00:28:23;4.00;;;3.70;;
9809;SDS011;4944;52.514;13.192;2023-04-24T00:30:49;3.63;;;3.23;;
9809;SDS011;4944;52.514;13.192;2023-04-24T00:33:17;3.30;;;3.10;;
9809;SDS011;4944;52.514;13.192;2023-04-24T00:35:44;3.10;;;3.00;;
9809;SDS011;4944;52.514;13.192;2023-04-24T00:38:10;3.70;;;3.40;;
9809;SDS011;4944;52.514;13.192;2023-04-24T00:40:37;3.43;;;3.23;;
9809;SDS011;4944;52.514;13.192;2023-04-24T00:43:04;3.57;;;3.37;;
9809;SDS011;4944;52.514;13.192;2023-04-24T00:45:33;3.53;;;3.33;;
9809;SDS011;4944;52.514;13.192;2023-04-24T00:48:00;3.40;;;3.20;;
9809;SDS011;4944;52.514;13.192;2023-04-24T00:50:28;3.60;;;3.40;;
9809;SDS011;4944;52.514;13.192;2023-04-24T00:52:55;3.50;;;3.30;;
9809;SDS011;4944;52.514;13.192;2023-04-24T00:55:22;3.63;;;3.33;;
9809;SDS011;4944;52.514;13.192;2023-04-24T00:57:50;3.77;;;3.47;;
9809;SDS011;4944;52.514;13.192;2023-04-24T01:00:17;3.30;;;3.10;;
9809;SDS011;4944;52.514;13.192;2023-04-24T01:02:46;3.33;;;3.13;;
9809;SDS011;4944;52.514;13.192;2023-04-24T01:05:14;3.80;;;3.50;;
9809;SDS011;4944;52.514;13.192;2023-04-24T01:07:43;3.80;;;3.50;;
9809;SDS011;4944;52.514;13.192;2023-04-24T01:10:12;3.47;;;3.27;;
9809;SDS011;4944;52.514;13.192;2023-04-24T01:12:42;4.00;;;3.60;;
9809;SDS011;4944;52.514;13.192;2023-04-24T01:15:09;3.73;;;3.43;;
9809;SDS011;4944;52.514;13.192;2023-04-24T01:17:36;3.80;;;3.60;;
9809;SDS011;4944;52.514;13.192;2023-04-24T01:20:06;3.83;;;3.63;;
9809;SDS011;4944;52.514;13.192;2023-04-24T01:22:35;4.03;;;3.73;;
9809;SDS011;4944;52.514;13.192;2023-04-24T01:25:02;3.93;;;3.73;;
9809;SDS011;4944;52.514;13.192;2023-04-24T01:27:30;3.83;;;3.53;;
9809;SDS011;4944;52.514;13.192;2023-04-24T01:29:57;3.97;;;3.57;;
9809;SDS011;4944;52.514;13.192;2023-04-24T01:32:24;3.53;;;3.33;;
9809;SDS011;4944;52.514;13.192;2023-04-24T01:34:51;4.10;;;3.80;;
9809;SDS011;4944;52.514;13.192;2023-04-24T01:37:18;3.50;;;3.20;;
9809;SDS011;4944;52.514;13.192;2023-04-24T01:39:46;3.80;;;3.50;;
9809;SDS011;4944;52.514;13.192;2023-04-24T01:42:13;3.77;;;3.57;;
9809;SDS011;4944;52.514;13.192;2023-04-24T01:44:40;4.10;;;3.90;;
9809;SDS011;4944;52.514;13.192;2023-04-24T01:47:08;3.90;;;3.60;;
9809;SDS011;4944;52.514;13.192;2023-04-24T01:49:35;4.60;;;3.87;;
9809;SDS011;4944;52.514;13.192;2023-04-24T01:52:04;4.03;;;3.70;;
9809;SDS011;4944;52.514;13.192;2023-04-24T01:54:31;4.03;;;3.83;;
9809;SDS011;4944;52.514;13.192;2023-04-24T01:56:59;4.17;;;3.87;;
9809;SDS011;4944;52.514;13.192;2023-04-24T01:59:27;3.93;;;3.73;;
9809;SDS011;4944;52.514;13.192;2023-04-24T02:01:54;3.90;;;3.70;;
9809;SDS011;4944;52.514;13.192;2023-04-24T02:04:21;4.10;;;3.80;;
9809;SDS011;4944;52.514;13.192;2023-04-24T02:06:48;4.27;;;3.97;;
9809;SDS011;4944;52.514;13.192;2023-04-24T02:09:15;4.07;;;3.80;;
9809;SDS011;4944;52.514;13.192;2023-04-24T02:11:42;4.20;;;3.90;;
9809;SDS011;4944;52.514;13.192;2023-04-24T02:14:10;4.07;;;3.87;;
9809;SDS011;4944;52.514;13.192;2023-04-24T02:16:37;4.33;;;4.10;;
9809;SDS011;4944;52.514;13.192;2023-04-24T02:19:04;4.23;;;3.93;;
9809;SDS011;4944;52.514;13.192;2023-04-24T02:21:31;4.27;;;3.93;;
9809;SDS011;4944;52.514;13.192;2023-04-24T02:23:59;4.40;;;4.00;;
9809;SDS011;4944;52.514;13.192;2023-04-24T02:26:26;4.20;;;3.90;;
9809;SDS011;4944;52.514;13.192;2023-04-24T02:28:53;4.00;;;3.70;;
9809;SDS011;4944;52.514;13.192;2023-04-24T02:31:21;4.40;;;4.00;;
9809;SDS011;4944;52.514;13.192;2023-04-24T02:33:48;3.70;;;3.50;;
9809;SDS011;4944;52.514;13.192;2023-04-24T02:36:15;4.13;;;3.77;;
9809;SDS011;4944;52.514;13.192;2023-04-24T02:38:42;3.93;;;3.70;;
9809;SDS011;4944;52.514;13.192;2023-04-24T02:41:09;4.00;;;3.70;;
9809;SDS011;4944;52.514;13.192;2023-04-24T02:43:35;5.30;;;3.73;;
9809;SDS011;4944;52.514;13.192;2023-04-24T02:46:02;3.90;;;3.70;;
9809;SDS011;4944;52.514;13.192;2023-04-24T02:48:31;4.30;;;3.70;;
9809;SDS011;4944;52.514;13.192;2023-04-24T02:50:58;4.53;;;4.23;;
9809;SDS011;4944;52.514;13.192;2023-04-24T02:53:25;3.73;;;3.53;;
9809;SDS011;4944;52.514;13.192;2023-04-24T02:55:51;4.13;;;3.83;;
9809;SDS011;4944;52.514;13.192;2023-04-24T02:58:19;4.53;;;4.13;;
9809;SDS011;4944;52.514;13.192;2023-04-24T03:00:46;4.37;;;4.07;;
9809;SDS011;4944;52.514;13.192;2023-04-24T03:03:13;4.17;;;3.87;;
9809;SDS011;4944;52.514;13.192;2023-04-24T03:05:41;4.27;;;4.07;;
9809;SDS011;4944;52.514;13.192;2023-04-24T03:08:08;4.13;;;3.83;;
9809;SDS011;4944;52.514;13.192;2023-04-24T03:10:36;4.40;;;4.10;;
9809;SDS011;4944;52.514;13.192;2023-04-24T03:13:03;4.07;;;3.77;;
9809;SDS011;4944;52.514;13.192;2023-04-24T03:15:30;4.10;;;3.80;;
9809;SDS011;4944;52.514;13.192;2023-04-24T03:17:57;4.30;;;3.90;;
9809;SDS011;4944;52.514;13.192;2023-04-24T03:20:23;4.37;;;4.07;;
9809;SDS011;4944;52.514;13.192;2023-04-24T03:22:52;4.67;;;4.30;;
9809;SDS011;4944;52.514;13.192;2023-04-24T03:25:19;6.13;;;4.20;;
9809;SDS011;4944;52.514;13.192;2023-04-24T03:27:46;4.40;;;4.20;;
9809;SDS011;4944;52.514;13.192;2023-04-24T03:30:13;4.93;;;4.53;;
9809;SDS011;4944;52.514;13.192;2023-04-24T03:32:40;4.80;;;4.40;;
9809;SDS011;4944;52.514;13.192;2023-04-24T03:35:07;4.63;;;4.33;;
9809;SDS011;4944;52.514;13.192;2023-04-24T03:37:34;4.80;;;4.50;;
9809;SDS011;4944;52.514;13.192;2023-04-24T03:40:03;4.73;;;4.20;;
9809;SDS011;4944;52.514;13.192;2023-04-24T03:42:31;4.90;;;4.50;;
9809;SDS011;4944;52.514;13.192;2023-04-24T03:44:57;4.80;;;4.40;;
9809;SDS011;4944;52.514;13.192;2023-04-24T03:47:24;4.43;;;4.13;;
9809;SDS011;4944;52.514;13.192;2023-04-24T03:49:51;4.40;;;4.10;;
9809;SDS011;4944;52.514;13.192;2023-04-24T03:52:19;4.43;;;4.13;;
9809;SDS011;4944;52.514;13.192;2023-04-24T03:54:46;4.90;;;4.57;;
9809;SDS011;4944;52.514;13.192;2023-04-24T03:57:14;4.90;;;4.60;;
9809;SDS011;4944;52.514;13.192;2023-04-24T03:59:41;4.33;;;4.03;;
9809;SDS011;4944;52.514;13.192;2023-04-24T04:02:08;5.00;;;4.70;;
9809;SDS011;4944;52.514;13.192;2023-04-24T04:04:35;4.80;;;4.50;;
9809;SDS011;4944;52.514;13.192;2023-04-24T04:07:02;4.70;;;4.40;;
9809;SDS011;4944;52.514;13.192;2023-04-24T04:09:30;4.67;;;4.37;;
9809;SDS011;4944;52.514;13.192;2023-04-24T04:11:57;4.47;;;4.07;;
9809;SDS011;4944;52.514;13.192;2023-04-24T04:14:26;4.17;;;3.87;;
9809;SDS011;4944;52.514;13.192;2023-04-24T04:16:53;4.00;;;3.70;;
9809;SDS011;4944;52.514;13.192;2023-04-24T04:19:21;4.67;;;4.37;;
9809;SDS011;4944;52.514;13.192;2023-04-24T04:21:48;4.30;;;4.00;;
9809;SDS011;4944;52.514;13.192;2023-04-24T04:24:18;4.10;;;3.90;;
9809;SDS011;4944;52.514;13.192;2023-04-24T04:26:46;4.07;;;3.87;;
9809;SDS011;4944;52.514;13.192;2023-04-24T04:29:16;4.33;;;3.93;;
9809;SDS011;4944;52.514;13.192;2023-04-24T04:31:45;4.37;;;3.90;;
9809;SDS011;4944;52.514;13.192;2023-04-24T04:34:12;3.80;;;3.60;;
9809;SDS011;4944;52.514;13.192;2023-04-24T04:36:39;4.20;;;3.80;;
9809;SDS011;4944;52.514;13.192;2023-04-24T04:39:06;4.10;;;3.80;;
9809;SDS011;4944;52.514;13.192;2023-04-24T04:41:33;4.67;;;4.10;;
9809;SDS011;4944;52.514;13.192;2023-04-24T04:44:01;4.47;;;4.07;;
9809;SDS011;4944;52.514;13.192;2023-04-24T04:46:29;4.20;;;3.90;;
9809;SDS011;4944;52.514;13.192;2023-04-24T04:49:00;3.80;;;3.60;;
9809;SDS011;4944;52.514;13.192;2023-04-24T04:51:27;4.10;;;3.80;;
9809;SDS011;4944;52.514;13.192;2023-04-24T04:53:55;4.03;;;3.73;;
9809;SDS011;4944;52.514;13.192;2023-04-24T04:56:22;4.07;;;3.77;;
9809;SDS011;4944;52.514;13.192;2023-04-24T04:58:48;3.90;;;3.70;;
9809;SDS011;4944;52.514;13.192;2023-04-24T05:01:15;4.10;;;3.80;;
9809;SDS011;4944;52.514;13.192;2023-04-24T05:03:42;3.77;;;3.47;;
9809;SDS011;4944;52.514;13.192;2023-04-24T05:06:10;3.70;;;3.40;;
9809;SDS011;4944;52.514;13.192;2023-04-24T05:08:37;4.27;;;3.87;;
9809;SDS011;4944;52.514;13.192;2023-04-24T05:11:04;3.93;;;3.73;;
9809;SDS011;4944;52.514;13.192;2023-04-24T05:13:32;3.47;;;3.27;;
9809;SDS011;4944;52.514;13.192;2023-04-24T05:15:59;3.90;;;3.50;;
9809;SDS011;4944;52.514;13.192;2023-04-24T05:18:26;3.73;;;3.43;;
9809;SDS011;4944;52.514;13.192;2023-04-24T05:20:53;3.93;;;3.70;;
9809;SDS011;4944;52.514;13.192;2023-04-24T05:23:21;3.40;;;3.20;;
9809;SDS011;4944;52.514;13.192;2023-04-24T05:25:48;3.20;;;3.10;;
9809;SDS011;4944;52.514;13.192;2023-04-24T05:28:15;3.87;;;3.67;;
9809;SDS011;4944;52.514;13.192;2023-04-24T05:30:42;3.23;;;3.03;;
9809;SDS011;4944;52.514;13.192;2023-04-24T05:33:09;3.30;;;3.00;;
9809;SDS011;4944;52.514;13.192;2023-04-24T05:35:36;3.10;;;3.00;;
9809;SDS011;4944;52.514;13.192;2023-04-24T05:38:03;3.20;;;3.00;;
9809;SDS011;4944;52.514;13.192;2023-04-24T05:40:31;2.93;;;2.73;;
9809;SDS011;4944;52.514;13.192;2023-04-24T05:42:58;2.80;;;2.60;;
9809;SDS011;4944;52.514;13.192;2023-04-24T05:45:25;2.87;;;2.77;;
9809;SDS011;4944;52.514;13.192;2023-04-24T05:47:52;2.83;;;2.63;;
9809;SDS011;4944;52.514;13.192;2023-04-24T05:50:20;2.60;;;2.50;;
9809;SDS011;4944;52.514;13.192;2023-04-24T05:52:47;3.97;;;2.90;;
9809;SDS011;4944;52.514;13.192;2023-04-24T05:55:14;2.77;;;2.40;;
9809;SDS011;4944;52.514;13.192;2023-04-24T05:57:43;2.70;;;2.50;;
9809;SDS011;4944;52.514;13.192;2023-04-24T06:00:11;2.30;;;2.20;;
9809;SDS011;4944;52.514;13.192;2023-04-24T06:02:39;2.33;;;2.23;;
9809;SDS011;4944;52.514;13.192;2023-04-24T06:05:06;2.20;;;2.10;;
9809;SDS011;4944;52.514;13.192;2023-04-24T06:07:34;2.10;;;2.00;;
9809;SDS011;4944;52.514;13.192;2023-04-24T06:10:01;2.73;;;2.07;;
9809;SDS011;4944;52.514;13.192;2023-04-24T06:12:28;1.80;;;1.70;;
9809;SDS011;4944;52.514;13.192;2023-04-24T06:14:56;3.13;;;1.70;;
9809;SDS011;4944;52.514;13.192;2023-04-24T06:17:23;1.43;;;1.33;;
9809;SDS011;4944;52.514;13.192;2023-04-24T06:19:50;1.40;;;1.40;;
9809;SDS011;4944;52.514;13.192;2023-04-24T06:22:17;1.47;;;1.40;;
9809;SDS011;4944;52.514;13.192;2023-04-24T06:24:44;1.27;;;1.23;;
9809;SDS011;4944;52.514;13.192;2023-04-24T06:27:12;2.93;;;1.60;;
9809;SDS011;4944;52.514;13.192;2023-04-24T06:29:39;1.20;;;1.20;;
9809;SDS011;4944;52.514;13.192;2023-04-24T06:32:07;1.27;;;1.17;;
9809;SDS011;4944;52.514;13.192;2023-04-24T06:34:34;3.17;;;1.30;;
9809;SDS011;4944;52.514;13.192;2023-04-24T06:37:01;2.63;;;1.30;;
9809;SDS011;4944;52.514;13.192;2023-04-24T06:39:28;1.13;;;1.07;;
9809;SDS011;4944;52.514;13.192;2023-04-24T06:41:55;2.03;;;1.10;;
9809;SDS011;4944;52.514;13.192;2023-04-24T06:44:22;3.20;;;1.03;;
9809;SDS011;4944;52.514;13.192;2023-04-24T06:46:49;0.90;;;0.90;;
9809;SDS011;4944;52.514;13.192;2023-04-24T06:49:17;1.40;;;1.27;;
9809;SDS011;4944;52.514;13.192;2023-04-24T06:51:45;2.57;;;1.23;;
9809;SDS011;4944;52.514;13.192;2023-04-24T06:54:12;1.20;;;1.10;;
9809;SDS011;4944;52.514;13.192;2023-04-24T06:56:38;1.17;;;0.60;;
9809;SDS011;4944;52.514;13.192;2023-04-24T06:59:05;3.17;;;1.20;;
9809;SDS011;4944;52.514;13.192;2023-04-24T07:01:32;1.10;;;1.00;;
9809;SDS011;4944;52.514;13.192;2023-04-24T07:03:59;1.10;;;1.00;;
9809;SDS011;4944;52.514;13.192;2023-04-24T07:06:28;1.00;;;0.70;;
9809;SDS011;4944;52.514;13.192;2023-04-24T07:08:56;1.10;;;1.10;;
9809;SDS011;4944;52.514;13.192;2023-04-24T07:11:23;1.00;;;1.00;;
9809;SDS011;4944;52.514;13.192;2023-04-24T07:13:54;0.73;;;0.73;;
9809;SDS011;4944;52.514;13.192;2023-04-24T07:16:21;0.90;;;0.90;;
9809;SDS011;4944;52.514;13.192;2023-04-24T07:18:48;1.53;;;1.10;;
9809;SDS011;4944;52.514;13.192;2023-04-24T07:21:15;0.50;;;0.50;;
9809;SDS011;4944;52.514;13.192;2023-04-24T07:23:43;0.70;;;0.70;;
9809;SDS011;4944;52.514;13.192;2023-04-24T07:26:10;0.93;;;0.50;;
9809;SDS011;4944;52.514;13.192;2023-04-24T07:28:37;0.57;;;0.57;;
9809;SDS011;4944;52.514;13.192;2023-04-24T07:31:04;0.60;;;0.60;;
9809;SDS011;4944;52.514;13.192;2023-04-24T07:33:31;0.87;;;0.70;;
9809;SDS011;4944;52.514;13.192;2023-04-24T07:35:58;2.37;;;0.60;;
9809;SDS011;4944;52.514;13.192;2023-04-24T07:38:25;1.07;;;0.50;;
9809;SDS011;4944;52.514;13.192;2023-04-24T07:40:54;0.57;;;0.57;;
9809;SDS011;4944;52.514;13.192;2023-04-24T07:43:21;0.77;;;0.77;;
9809;SDS011;4944;52.514;13.192;2023-04-24T07:45:48;0.60;;;0.53;;
9809;SDS011;4944;52.514;13.192;2023-04-24T07:48:15;1.27;;;0.43;;
9809;SDS011;4944;52.514;13.192;2023-04-24T07:50:43;0.63;;;0.63;;
9809;SDS011;4944;52.514;13.192;2023-04-24T07:53:11;2.13;;;0.60;;
9809;SDS011;4944;52.514;13.192;2023-04-24T07:55:37;0.53;;;0.50;;
9809;SDS011;4944;52.514;13.192;2023-04-24T07:58:06;0.90;;;0.60;;
9809;SDS011;4944;52.514;13.192;2023-04-24T08:00:33;0.50;;;0.50;;
9809;SDS011;4944;52.514;13.192;2023-04-24T08:03:00;1.13;;;0.70;;
9809;SDS011;4944;52.514;13.192;2023-04-24T08:05:27;0.50;;;0.50;;
9809;SDS011;4944;52.514;13.192;2023-04-24T08:07:54;0.97;;;0.57;;
9809;SDS011;4944;52.514;13.192;2023-04-24T08:10:21;0.67;;;0.53;;
9809;SDS011;4944;52.514;13.192;2023-04-24T08:12:49;1.00;;;0.50;;
9809;SDS011;4944;52.514;13.192;2023-04-24T08:15:17;0.60;;;0.53;;
9809;SDS011;4944;52.514;13.192;2023-04-24T08:17:44;1.03;;;0.43;;
9809;SDS011;4944;52.514;13.192;2023-04-24T08:20:11;2.20;;;0.50;;
9809;SDS011;4944;52.514;13.192;2023-04-24T08:22:39;0.47;;;0.40;;
9809;SDS011;4944;52.514;13.192;2023-04-24T08:25:06;0.60;;;0.33;;
9809;SDS011;4944;52.514;13.192;2023-04-24T08:27:35;2.00;;;0.47;;
9809;SDS011;4944;52.514;13.192;2023-04-24T08:30:03;0.30;;;0.30;;
9809;SDS011;4944;52.514;13.192;2023-04-24T08:32:32;1.03;;;0.50;;
9809;SDS011;4944;52.514;13.192;2023-04-24T08:34:59;0.63;;;0.43;;
9809;SDS011;4944;52.514;13.192;2023-04-24T08:37:26;0.40;;;0.40;;
9809;SDS011;4944;52.514;13.192;2023-04-24T08:39:54;0.40;;;0.40;;
9809;SDS011;4944;52.514;13.192;2023-04-24T08:42:21;0.40;;;0.40;;
9809;SDS011;4944;52.514;13.192;2023-04-24T08:44:48;0.50;;;0.50;;
9809;SDS011;4944;52.514;13.192;2023-04-24T08:47:15;0.50;;;0.47;;
9809;SDS011;4944;52.514;13.192;2023-04-24T08:49:44;1.30;;;0.40;;
9809;SDS011;4944;52.514;13.192;2023-04-24T08:52:14;0.43;;;0.40;;
9809;SDS011;4944;52.514;13.192;2023-04-24T08:54:42;1.80;;;0.40;;
9809;SDS011;4944;52.514;13.192;2023-04-24T08:57:11;0.43;;;0.40;;
9809;SDS011;4944;52.514;13.192;2023-04-24T08:59:40;2.57;;;0.47;;
9809;SDS011;4944;52.514;13.192;2023-04-24T09:02:09;4.10;;;0.83;;
9809;SDS011;4944;52.514;13.192;2023-04-24T09:04:37;0.83;;;0.60;;
9809;SDS011;4944;52.514;13.192;2023-04-24T09:07:06;0.40;;;0.40;;
9809;SDS011;4944;52.514;13.192;2023-04-24T09:09:34;0.50;;;0.50;;
9809;SDS011;4944;52.514;13.192;2023-04-24T09:12:02;0.67;;;0.60;;
9809;SDS011;4944;52.514;13.192;2023-04-24T09:14:29;1.13;;;0.60;;
9809;SDS011;4944;52.514;13.192;2023-04-24T09:16:57;2.63;;;0.73;;
9809;SDS011;4944;52.514;13.192;2023-04-24T09:19:23;0.50;;;0.50;;
9809;SDS011;4944;52.514;13.192;2023-04-24T09:21:50;0.60;;;0.60;;
9809;SDS011;4944;52.514;13.192;2023-04-24T09:24:21;0.50;;;0.50;;
9809;SDS011;4944;52.514;13.192;2023-04-24T09:26:48;2.33;;;0.70;;
9809;SDS011;4944;52.514;13.192;2023-04-24T09:29:23;0.73;;;0.73;;
9809;SDS011;4944;52.514;13.192;2023-04-24T09:31:50;1.73;;;0.53;;
9809;SDS011;4944;52.514;13.192;2023-04-24T09:34:20;0.83;;;0.70;;
9809;SDS011;4944;52.514;13.192;2023-04-24T09:36:48;1.50;;;0.77;;
9809;SDS011;4944;52.514;13.192;2023-04-24T09:39:16;0.67;;;0.60;;
9809;SDS011;4944;52.514;13.192;2023-04-24T09:41:48;0.70;;;0.70;;
9809;SDS011;4944;52.514;13.192;2023-04-24T09:44:17;0.63;;;0.60;;
9809;SDS011;4944;52.514;13.192;2023-04-24T09:46:49;0.90;;;0.77;;
9809;SDS011;4944;52.514;13.192;2023-04-24T09:49:21;0.50;;;0.50;;
9809;SDS011;4944;52.514;13.192;2023-04-24T09:51:49;0.60;;;0.60;;
9809;SDS011;4944;52.514;13.192;2023-04-24T09:54:16;1.80;;;0.70;;
9809;SDS011;4944;52.514;13.192;2023-04-24T09:56:45;0.63;;;0.60;;
9809;SDS011;4944;52.514;13.192;2023-04-24T09:59:14;1.40;;;0.60;;
9809;SDS011;4944;52.514;13.192;2023-04-24T10:01:41;0.60;;;0.47;;
9809;SDS011;4944;52.514;13.192;2023-04-24T10:04:15;1.07;;;0.70;;
9809;SDS011;4944;52.514;13.192;2023-04-24T10:06:44;0.70;;;0.70;;
9809;SDS011;4944;52.514;13.192;2023-04-24T10:09:13;1.43;;;0.70;;
9809;SDS011;4944;52.514;13.192;2023-04-24T10:11:41;0.63;;;0.57;;
9809;SDS011;4944;52.514;13.192;2023-04-24T10:14:12;1.17;;;0.50;;
9809;SDS011;4944;52.514;13.192;2023-04-24T10:16:40;1.57;;;0.70;;
9809;SDS011;4944;52.514;13.192;2023-04-24T10:19:07;1.07;;;0.83;;
9809;SDS011;4944;52.514;13.192;2023-04-24T10:21:34;0.63;;;0.63;;
9809;SDS011;4944;52.514;13.192;2023-04-24T10:24:03;0.60;;;0.60;;
9809;SDS011;4944;52.514;13.192;2023-04-24T10:26:32;1.27;;;0.57;;
9809;SDS011;4944;52.514;13.192;2023-04-24T10:29:00;1.43;;;0.53;;
9809;SDS011;4944;52.514;13.192;2023-04-24T10:31:28;1.07;;;0.60;;
9809;SDS011;4944;52.514;13.192;2023-04-24T10:33:57;0.87;;;0.63;;
9809;SDS011;4944;52.514;13.192;2023-04-24T10:36:26;0.43;;;0.40;;
9809;SDS011;4944;52.514;13.192;2023-04-24T10:38:57;2.60;;;0.60;;
9809;SDS011;4944;52.514;13.192;2023-04-24T10:41:27;0.50;;;0.50;;
9809;SDS011;4944;52.514;13.192;2023-04-24T10:44:05;0.70;;;0.70;;
9809;SDS011;4944;52.514;13.192;2023-04-24T10:46:34;1.57;;;0.43;;
9809;SDS011;4944;52.514;13.192;2023-04-24T10:49:03;0.57;;;0.57;;
9809;SDS011;4944;52.514;13.192;2023-04-24T10:51:46;0.70;;;0.70;;
9809;SDS011;4944;52.514;13.192;2023-04-24T10:54:24;0.90;;;0.70;;
9809;SDS011;4944;52.514;13.192;2023-04-24T10:56:52;0.70;;;0.70;;
9809;SDS011;4944;52.514;13.192;2023-04-24T10:59:24;1.93;;;1.10;;
9809;SDS011;4944;52.514;13.192;2023-04-24T11:01:54;1.10;;;0.90;;
9809;SDS011;4944;52.514;13.192;2023-04-24T11:04:30;1.10;;;1.00;;
9809;SDS011;4944;52.514;13.192;2023-04-24T11:06:58;0.90;;;0.90;;
9809;SDS011;4944;52.514;13.192;2023-04-24T11:09:26;0.90;;;0.90;;
9809;SDS011;4944;52.514;13.192;2023-04-24T11:12:02;0.87;;;0.57;;
9809;SDS011;4944;52.514;13.192;2023-04-24T11:14:31;0.47;;;0.47;;
9809;SDS011;4944;52.514;13.192;2023-04-24T11:17:31;0.70;;;0.70;;
9809;SDS011;4944;52.514;13.192;2023-04-24T11:20:02;0.47;;;0.47;;
9809;SDS011;4944;52.514;13.192;2023-04-24T11:22:32;0.50;;;0.50;;
9809;SDS011;4944;52.514;13.192;2023-04-24T11:25:01;1.23;;;0.70;;
9809;SDS011;4944;52.514;13.192;2023-04-24T11:27:30;0.80;;;0.60;;
9809;SDS011;4944;52.514;13.192;2023-04-24T11:29:59;1.00;;;0.47;;
9809;SDS011;4944;52.514;13.192;2023-04-24T11:32:27;1.07;;;0.60;;
9809;SDS011;4944;52.514;13.192;2023-04-24T11:34:57;0.67;;;0.67;;
9809;SDS011;4944;52.514;13.192;2023-04-24T11:37:26;0.40;;;0.40;;
9809;SDS011;4944;52.514;13.192;2023-04-24T11:39:54;2.00;;;0.60;;
9809;SDS011;4944;52.514;13.192;2023-04-24T11:42:22;0.90;;;0.70;;
9809;SDS011;4944;52.514;13.192;2023-04-24T11:44:51;0.77;;;0.60;;
9809;SDS011;4944;52.514;13.192;2023-04-24T11:47:20;0.50;;;0.50;;
9809;SDS011;4944;52.514;13.192;2023-04-24T11:49:54;0.90;;;0.67;;
9809;SDS011;4944;52.514;13.192;2023-04-24T11:52:22;0.57;;;0.57;;
9809;SDS011;4944;52.514;13.192;2023-04-24T11:54:49;1.03;;;0.60;;
9809;SDS011;4944;52.514;13.192;2023-04-24T11:57:16;0.97;;;0.57;;
9809;SDS011;4944;52.514;13.192;2023-04-24T11:59:46;2.63;;;0.60;;
9809;SDS011;4944;52.514;13.192;2023-04-24T12:02:19;1.23;;;0.50;;
9809;SDS011;4944;52.514;13.192;2023-04-24T12:04:47;0.83;;;0.60;;
9809;SDS011;4944;52.514;13.192;2023-04-24T12:07:14;0.87;;;0.60;;
9809;SDS011;4944;52.514;13.192;2023-04-24T12:09:43;1.47;;;0.73;;
9809;SDS011;4944;52.514;13.192;2023-04-24T12:12:11;0.43;;;0.43;;
9809;SDS011;4944;52.514;13.192;2023-04-24T12:17:25;0.73;;;0.67;;
9809;SDS011;4944;52.514;13.192;2023-04-24T12:19:56;0.77;;;0.40;;
9809;SDS011;4944;52.514;13.192;2023-04-24T12:22:25;0.50;;;0.40;;
9809;SDS011;4944;52.514;13.192;2023-04-24T12:24:56;0.30;;;0.30;;
9809;SDS011;4944;52.514;13.192;2023-04-24T12:27:25;0.57;;;0.30;;
9809;SDS011;4944;52.514;13.192;2023-04-24T12:29:53;0.37;;;0.37;;
9809;SDS011;4944;52.514;13.192;2023-04-24T12:32:21;1.57;;;0.43;;
9809;SDS011;4944;52.514;13.192;2023-04-24T12:34:49;0.83;;;0.70;;
9809;SDS011;4944;52.514;13.192;2023-04-24T12:37:16;1.17;;;0.60;;
9809;SDS011;4944;52.514;13.192;2023-04-24T12:40:01;0.70;;;0.70;;
9809;SDS011;4944;52.514;13.192;2023-04-24T12:42:31;0.47;;;0.47;;
9809;SDS011;4944;52.514;13.192;2023-04-24T12:44:59;1.47;;;0.67;;
9809;SDS011;4944;52.514;13.192;2023-04-24T12:47:27;0.67;;;0.67;;
9809;SDS011;4944;52.514;13.192;2023-04-24T12:49:55;0.90;;;0.80;;
9809;SDS011;4944;52.514;13.192;2023-04-24T12:52:22;0.70;;;0.70;;
9809;SDS011;4944;52.514;13.192;2023-04-24T12:54:52;0.60;;;0.60;;
9809;SDS011;4944;52.514;13.192;2023-04-24T12:57:21;2.23;;;0.70;;
9809;SDS011;4944;52.514;13.192;2023-04-24T12:59:48;0.50;;;0.50;;
9809;SDS011;4944;52.514;13.192;2023-04-24T13:02:15;0.90;;;0.63;;
9809;SDS011;4944;52.514;13.192;2023-04-24T13:04:43;0.97;;;0.90;;
9809;SDS011;4944;52.514;13.192;2023-04-24T13:07:11;0.60;;;0.60;;
9809;SDS011;4944;52.514;13.192;2023-04-24T13:09:39;2.07;;;0.77;;
9809;SDS011;4944;52.514;13.192;2023-04-24T13:12:06;1.13;;;0.80;;
9809;SDS011;4944;52.514;13.192;2023-04-24T13:14:34;0.90;;;0.90;;
9809;SDS011;4944;52.514;13.192;2023-04-24T13:17:02;1.00;;;1.00;;
9809;SDS011;4944;52.514;13.192;2023-04-24T13:19:29;1.47;;;1.10;;
9809;SDS011;4944;52.514;13.192;2023-04-24T13:22:01;1.13;;;0.70;;
9809;SDS011;4944;52.514;13.192;2023-04-24T13:24:28;0.50;;;0.50;;
9809;SDS011;4944;52.514;13.192;2023-04-24T13:26:56;2.27;;;0.70;;
9809;SDS011;4944;52.514;13.192;2023-04-24T13:29:23;2.40;;;0.50;;
9809;SDS011;4944;52.514;13.192;2023-04-24T13:31:52;0.70;;;0.70;;
9809;SDS011;4944;52.514;13.192;2023-04-24T13:34:20;2.13;;;0.77;;
9809;SDS011;4944;52.514;13.192;2023-04-24T13:36:47;0.87;;;0.70;;
9809;SDS011;4944;52.514;13.192;2023-04-24T13:39:14;1.20;;;0.87;;
9809;SDS011;4944;52.514;13.192;2023-04-24T13:41:41;0.83;;;0.70;;
9809;SDS011;4944;52.514;13.192;2023-04-24T13:44:09;1.80;;;0.80;;
9809;SDS011;4944;52.514;13.192;2023-04-24T13:46:36;1.90;;;0.50;;
9809;SDS011;4944;52.514;13.192;2023-04-24T13:49:04;0.97;;;0.77;;
9809;SDS011;4944;52.514;13.192;2023-04-24T13:51:31;1.60;;;0.67;;
9809;SDS011;4944;52.514;13.192;2023-04-24T13:53:59;0.80;;;0.80;;
9809;SDS011;4944;52.514;13.192;2023-04-24T13:56:26;1.43;;;0.73;;
9809;SDS011;4944;52.514;13.192;2023-04-24T13:58:53;0.70;;;0.70;;
9809;SDS011;4944;52.514;13.192;2023-04-24T14:01:20;0.60;;;0.60;;
9809;SDS011;4944;52.514;13.192;2023-04-24T14:03:49;1.10;;;0.80;;
9809;SDS011;4944;52.514;13.192;2023-04-24T14:06:18;0.60;;;0.60;;
9809;SDS011;4944;52.514;13.192;2023-04-24T14:08:45;0.63;;;0.60;;
9809;SDS011;4944;52.514;13.192;2023-04-24T14:11:13;0.37;;;0.37;;
9809;SDS011;4944;52.514;13.192;2023-04-24T14:13:40;0.60;;;0.60;;
9809;SDS011;4944;52.514;13.192;2023-04-24T14:16:07;2.40;;;0.60;;
9809;SDS011;4944;52.514;13.192;2023-04-24T14:18:34;0.63;;;0.63;;
9809;SDS011;4944;52.514;13.192;2023-04-24T14:21:01;1.43;;;0.90;;
9809;SDS011;4944;52.514;13.192;2023-04-24T14:23:30;3.43;;;0.50;;
9809;SDS011;4944;52.514;13.192;2023-04-24T14:25:57;0.60;;;0.60;;
9809;SDS011;4944;52.514;13.192;2023-04-24T14:28:24;0.73;;;0.73;;
9809;SDS011;4944;52.514;13.192;2023-04-24T14:30:51;1.07;;;0.57;;
9809;SDS011;4944;52.514;13.192;2023-04-24T14:33:18;0.93;;;0.60;;
9809;SDS011;4944;52.514;13.192;2023-04-24T14:35:45;1.40;;;0.90;;
9809;SDS011;4944;52.514;13.192;2023-04-24T14:38:12;1.00;;;0.90;;
9809;SDS011;4944;52.514;13.192;2023-04-24T14:40:41;0.63;;;0.63;;
9809;SDS011;4944;52.514;13.192;2023-04-24T14:43:08;0.70;;;0.70;;
9809;SDS011;4944;52.514;13.192;2023-04-24T14:45:36;0.70;;;0.70;;
9809;SDS011;4944;52.514;13.192;2023-04-24T14:48:03;1.07;;;0.70;;
9809;SDS011;4944;52.514;13.192;2023-04-24T14:50:30;0.70;;;0.70;;
9809;SDS011;4944;52.514;13.192;2023-04-24T14:52:57;0.67;;;0.67;;
9809;SDS011;4944;52.514;13.192;2023-04-24T14:55:24;1.60;;;0.80;;
9809;SDS011;4944;52.514;13.192;2023-04-24T14:57:52;0.70;;;0.70;;
9809;SDS011;4944;52.514;13.192;2023-04-24T15:00:20;0.80;;;0.80;;
9809;SDS011;4944;52.514;13.192;2023-04-24T15:02:48;0.93;;;0.90;;
9809;SDS011;4944;52.514;13.192;2023-04-24T15:05:15;0.73;;;0.73;;
9809;SDS011;4944;52.514;13.192;2023-04-24T15:07:42;1.90;;;0.83;;